Home > Products > Valid Products > TAF

000
FTUS43 KSGF 182300
TAFSGF
TAF
KSGF 182331Z 1900/1924 09005KT P6SM SCT050 BKN100
     FM190400 12005KT 6SM BR FEW050 SCT100
     FM190600 14004KT 4SM BR FEW050 SCT100 BKN250
      TEMPO 1908/1912 1SM BR BKN003
     FM191400 21006KT P6SM SCT025 BKN100
     FM191800 23010KT P6SM VCTS SCT035CB BKN100
     FM192100 23010KT 6SM -TSRA BR SCT020 OVC035CB=



000
FTUS43 KSGF 182300
TAFJLN
TAF
KJLN 182331Z 1900/1924 11007KT P6SM SCT030 SCT050 BKN100
     FM190400 12006KT 6SM BR FEW050 SCT100
     FM190700 14004KT 4SM BR SCT050 SCT100 BKN250
     FM191400 22008KT P6SM VCTS SCT035CB BKN100
     FM191800 26010KT 6SM -TSRA BR SCT020 OVC035CB=



000
FTUS43 KSGF 182100 AAA
TAFJLN
TAF AMD
KJLN 182152Z 1822/1918 10007KT P6SM SCT018 BKN025 BKN110
      TEMPO 1822/1824 SCT025 BKN110
     FM190000 12005KT P6SM SCT040 BKN100
     FM190900 16005KT 4SM BR BKN015
     FM191400 24006KT P6SM SCT035 BKN100=



000
FTUS43 KSGF 182100 AAA
TAFJLN
TAF AMD
KJLN 182152Z 1822/1918 10007KT P6SM SCT018 BKN025 BKN110
      TEMPO 1822/1824 SCT025 BKN110
     FM190000 12005KT P6SM SCT040 BKN100
     FM190900 16005KT 4SM BR BKN015
     FM191400 24006KT P6SM SCT035 BKN100=



000
FTUS43 KSGF 181700
TAFSGF
TAF
KSGF 181728Z 1818/1918 19007KT 6SM -SHRA SCT008 BKN014 OVC035
      TEMPO 1818/1820 BKN008 OVC014
     FM182100 16008KT P6SM VCSH SCT015 BKN060
     FM190000 15005KT P6SM SCT035 BKN100
     FM191000 16005KT 4SM BR BKN012
     FM191400 21006KT P6SM SCT025 BKN100=



000
FTUS43 KSGF 181700
TAFJLN
TAF
KJLN 181728Z 1818/1918 15006KT 6SM -SHRA SCT020 OVC060
      TEMPO 1818/1820 BKN014 OVC060
     FM182100 19007KT P6SM VCSH SCT030 OVC070
     FM190000 14005KT P6SM SCT040 BKN100
     FM190900 16005KT 4SM BR BKN015
     FM191400 24006KT P6SM SCT035 BKN100=



000
FTUS43 KSGF 181700
TAFJLN
TAF
KJLN 181728Z 1818/1918 15006KT 6SM -SHRA SCT020 OVC060
      TEMPO 1818/1820 BKN014 OVC060
     FM182100 19007KT P6SM VCSH SCT030 OVC070
     FM190000 14005KT P6SM SCT040 BKN100
     FM190900 16005KT 4SM BR BKN015
     FM191400 24006KT P6SM SCT035 BKN100=



000
FTUS43 KSGF 181700
TAFSGF
TAF
KSGF 181728Z 1818/1918 19007KT 6SM -SHRA SCT008 BKN014 OVC035
      TEMPO 1818/1820 BKN008 OVC014
     FM182100 16008KT P6SM VCSH SCT015 BKN060
     FM190000 15005KT P6SM SCT035 BKN100
     FM191000 16005KT 4SM BR BKN012
     FM191400 21006KT P6SM SCT025 BKN100=



000
FTUS43 KSGF 181500 AAC
TAFJLN
TAF AMD
KJLN 181554Z 1816/1912 13006KT 5SM -SHRA BR SCT025 OVC050
      TEMPO 1816/1818 3SM TSRA BR SCT006 OVC025CB
     FM181800 15006KT 6SM -SHRA SCT025 OVC060
     FM182100 19007KT P6SM VCTS SCT020 OVC040CB
     FM190000 14005KT P6SM -SHRA VCTS OVC050CB=



000
FTUS43 KSGF 181500 AAB
TAFSGF
TAF AMD
KSGF 181553Z 1816/1912 18007KT 6SM -SHRA SCT012 OVC035
      TEMPO 1816/1819 5SM -TSRA BKN012 OVC030CB
     FM181900 16008KT P6SM VCSH BKN035 OVC060
     FM190000 15005KT P6SM -SHRA VCTS OVC050CB=



000
FTUS43 KSGF 181400 AAA
TAFSGF
TAF AMD
KSGF 181416Z 1814/1912 15007KT P6SM VCTS SCT045CB OVC060
      TEMPO 1814/1818 5SM -TSRA SCT025 OVC045CB
     FM181900 16008KT P6SM VCSH BKN035 OVC060
     FM190000 15005KT P6SM -SHRA VCTS OVC050CB=



000
FTUS43 KSGF 181300 AAB
TAFJLN
TAF AMD
KJLN 181320Z 1813/1912 13007KT 5SM -SHRA BR VCTS BKN025CB OVC050
      TEMPO 1813/1816 2SM TSRA BR SCT006 OVC015CB
     FM181700 15006KT 6SM -SHRA SCT025 OVC060
     FM182200 19007KT P6SM VCTS SCT020 OVC040CB
     FM190000 14005KT P6SM -SHRA VCTS OVC050CB=



000
FTUS43 KSGF 181300 AAB
TAFJLN
TAF AMD
KJLN 181320Z 1813/1912 13007KT 5SM -SHRA BR VCTS BKN025CB OVC050
      TEMPO 1813/1816 2SM TSRA BR SCT006 OVC015CB
     FM181700 15006KT 6SM -SHRA SCT025 OVC060
     FM182200 19007KT P6SM VCTS SCT020 OVC040CB
     FM190000 14005KT P6SM -SHRA VCTS OVC050CB=



000
FTUS43 KSGF 181200 AAA
TAFSGF
TAF AMD
KSGF 181229Z 1812/1912 15007KT P6SM SCT045 OVC060
     FM181500 16008KT P6SM VCTS BKN035CB OVC060
     FM190000 15005KT P6SM -SHRA VCTS OVC050CB=



000
FTUS43 KSGF 181200 AAA
TAFJLN
TAF AMD
KJLN 181214Z 1812/1912 13007KT 6SM -SHRA BR VCTS BKN025CB OVC040
      TEMPO 1812/1816 3SM TSRA BR OVC015CB
     FM182200 19007KT P6SM VCTS SCT020 OVC040CB
     FM190000 14005KT P6SM -SHRA VCTS OVC050CB=



000
FTUS43 KSGF 181100
TAFSGF
TAF
KSGF 181120Z 1812/1912 15007KT P6SM SCT045 OVC060
      TEMPO 1812/1814 4SM BR
     FM181500 16008KT P6SM VCTS BKN035CB OVC060
     FM190000 15005KT P6SM -SHRA VCTS OVC050CB=



000
FTUS43 KSGF 181100
TAFJLN
TAF
KJLN 181120Z 1812/1912 13007KT 6SM -SHRA BR VCTS BKN040CB OVC060
      TEMPO 1815/1819 3SM TSRA BR OVC015CB
     FM182200 19007KT P6SM VCTS SCT020 OVC040CB
     FM190000 14005KT P6SM -SHRA VCTS OVC050CB=



000
FTUS43 KSGF 181100
TAFSGF
TAF
KSGF 181120Z 1812/1912 15007KT P6SM SCT045 OVC060
      TEMPO 1812/1814 4SM BR
     FM181500 16008KT P6SM VCTS BKN035CB OVC060
     FM190000 15005KT P6SM -SHRA VCTS OVC050CB=



000
FTUS43 KSGF 181100
TAFJLN
TAF
KJLN 181120Z 1812/1912 13007KT 6SM -SHRA BR VCTS BKN040CB OVC060
      TEMPO 1815/1819 3SM TSRA BR OVC015CB
     FM182200 19007KT P6SM VCTS SCT020 OVC040CB
     FM190000 14005KT P6SM -SHRA VCTS OVC050CB=



000
FTUS43 KSGF 181000 AAA
TAFJLN
TAF AMD
KJLN 181055Z 1811/1906 16007KT P6SM -SHRA VCTS BKN035CB OVC050
      TEMPO 1815/1819 3SM TSRA BR OVC020CB
     FM182200 18009KT P6SM VCTS SCT020 OVC040CB
     FM190000 12006KT P6SM OVC050 PROB30 1900/1906 6SM -TSRA BR
      OVC035CB=



000
FTUS43 KSGF 180500
TAFJLN
TAF
KJLN 180520Z 1806/1906 15003KT P6SM SCT050 OVC150
     FM180900 15006KT P6SM VCSH BKN050 OVC080
     FM181200 16007KT 6SM -SHRA BR VCTS BKN035CB OVC050
      TEMPO 1812/1816 3SM TSRA BR OVC020CB
     FM181800 18009KT P6SM VCTS SCT020 OVC040CB
     FM190000 12006KT P6SM OVC050 PROB30 1900/1906 6SM -TSRA BR
      OVC035CB=



000
FTUS43 KSGF 180500
TAFSGF
TAF
KSGF 180520Z 1806/1906 16006KT P6SM SCT050 OVC150
      TEMPO 1811/1814 4SM BR
     FM181500 16008KT P6SM VCTS BKN035CB OVC060
     FM190000 12006KT P6SM OVC050 PROB30 1900/1906 4SM -TSRA BR
      OVC035CB=



000
FTUS43 KSGF 180300 AAA
TAFJLN
TAF AMD
KJLN 180300Z 1803/1824 15007KT P6SM VCSH BKN040 OVC150
      TEMPO 1804/1808 6SM -SHRA OVC040
     FM180900 14006KT P6SM VCTS BKN040CB OVC070
     FM181200 16007KT P6SM VCTS BKN035CB OVC060
      TEMPO 1812/1816 5SM -TSRA BR OVC040CB=



000
FTUS43 KSGF 180300 AAA
TAFJLN
TAF AMD
KJLN 180300Z 1803/1824 15007KT P6SM VCSH BKN040 OVC150
      TEMPO 1804/1808 6SM -SHRA OVC040
     FM180900 14006KT P6SM VCTS BKN040CB OVC070
     FM181200 16007KT P6SM VCTS BKN035CB OVC060
      TEMPO 1812/1816 5SM -TSRA BR OVC040CB=



000
FTUS43 KSGF 172300
TAFSGF
TAF
KSGF 172320Z 1800/1824 17006KT P6SM SCT040 BKN250
     FM180600 15007KT P6SM VCSH BKN040 OVC100 PROB30 1809/1814 5SM
      -TSRA BR BKN040CB
     FM181500 17008KT P6SM VCTS BKN035CB OVC060 PROB30 1815/1818 5SM
      -TSRA BR BKN040CB=



000
FTUS43 KSGF 172300
TAFJLN
TAF
KJLN 172320Z 1800/1824 14006KT P6SM SCT040 BKN250
     FM180600 15007KT P6SM VCSH BKN040 OVC100
      TEMPO 1806/1809 6SM -SHRA OVC040
     FM180900 14006KT P6SM VCTS BKN040CB OVC070 PROB30 1809/1812 5SM
      -TSRA BR BKN040CB
     FM181200 16007KT P6SM VCTS BKN035CB OVC060
      TEMPO 1812/1816 5SM -TSRA BR OVC040CB=



000
FTUS43 KSGF 172300
TAFSGF
TAF
KSGF 172320Z 1800/1824 17006KT P6SM SCT040 BKN250
     FM180600 15007KT P6SM VCSH BKN040 OVC100 PROB30 1809/1814 5SM
      -TSRA BR BKN040CB
     FM181500 17008KT P6SM VCTS BKN035CB OVC060 PROB30 1815/1818 5SM
      -TSRA BR BKN040CB=



000
FTUS43 KSGF 172300
TAFJLN
TAF
KJLN 172320Z 1800/1824 14006KT P6SM SCT040 BKN250
     FM180600 15007KT P6SM VCSH BKN040 OVC100
      TEMPO 1806/1809 6SM -SHRA OVC040
     FM180900 14006KT P6SM VCTS BKN040CB OVC070 PROB30 1809/1812 5SM
      -TSRA BR BKN040CB
     FM181200 16007KT P6SM VCTS BKN035CB OVC060
      TEMPO 1812/1816 5SM -TSRA BR OVC040CB=



000
FTUS43 KSGF 171800 AAA
TAFSGF
TAF AMD
KSGF 171853Z 1719/1818 13008KT P6SM VCSH SCT040 BKN120
     FM180000 13008KT P6SM FEW040 BKN120
     FM180600 14008KT P6SM VCSH BKN040 OVC120
     FM181500 15008KT 6SM -TSRA BKN035CB OVC070=



000
FTUS43 KSGF 171700
TAFJLN
TAF
KJLN 171737Z 1718/1818 21006KT 6SM -TSRA SCT035CB OVC070
     FM171900 19006KT P6SM VCSH SCT035 OVC100
     FM180000 17008KT P6SM FEW040 BKN120
     FM180600 14008KT P6SM VCSH BKN040 OVC120
      TEMPO 1808/1812 6SM -SHRA OVC040
     FM181200 15008KT 6SM -TSRA BKN035CB OVC070=



000
FTUS43 KSGF 171700
TAFSGF
TAF
KSGF 171737Z 1718/1818 13008KT P6SM BKN120 OVC200
     FM171900 13008KT P6SM VCSH SCT040 OVC120
      TEMPO 1720/1722 5SM -TSRA BKN040CB OVC080
     FM180000 13008KT P6SM FEW040 BKN120
     FM180600 14008KT P6SM VCSH BKN040 OVC120
     FM181500 15008KT 6SM -TSRA BKN035CB OVC070=



000
FTUS43 KSGF 171600 AAB
TAFJLN
TAF AMD
KJLN 171621Z 1716/1812 19006KT 6SM -TSRA SCT035 OVC060CB
      TEMPO 1716/1718 3SM TSRA OVC040CB
     FM171900 13006KT P6SM VCSH SCT035 OVC100
     FM180300 14004KT P6SM FEW040 BKN120 PROB30 1806/1812 4SM -TSRA
      BR BKN035CB=



000
FTUS43 KSGF 171600 AAB
TAFJLN
TAF AMD
KJLN 171621Z 1716/1812 19006KT 6SM -TSRA SCT035 OVC060CB
      TEMPO 1716/1718 3SM TSRA OVC040CB
     FM171900 13006KT P6SM VCSH SCT035 OVC100
     FM180300 14004KT P6SM FEW040 BKN120 PROB30 1806/1812 4SM -TSRA
      BR BKN035CB=



000
FTUS43 KSGF 171300 AAA
TAFJLN
TAF AMD
KJLN 171341Z 1714/1812 11005KT P6SM BKN250
     FM171500 11005KT 3SM -TSRA OVC040CB
     FM171615 13006KT P6SM OVC100
     FM180300 14004KT P6SM FEW040 BKN120 PROB30 1806/1812 4SM -TSRA
      BR BKN035CB=



000
FTUS43 KSGF 171100
TAFJLN
TAF
KJLN 171120Z 1712/1812 11005KT P6SM BKN250
     FM171600 15008KT P6SM VCSH SCT040 BKN250
      TEMPO 1719/1723 4SM -TSRA BR BKN040CB
     FM180300 14004KT P6SM FEW040 BKN120 PROB30 1806/1812 4SM -TSRA
      BR BKN035CB=



000
FTUS43 KSGF 171100
TAFSGF
TAF
KSGF 171120Z 1712/1812 13008KT P6SM BKN250
     FM171900 13008KT P6SM FEW040 BKN250 PROB30 1721/1801 5SM -TSRA
      BR BKN040CB
     FM180600 14008KT P6SM FEW040 BKN120 PROB30 1808/1812 5SM -TSRA
      BR BKN040CB=



000
FTUS43 KSGF 171100
TAFSGF
TAF
KSGF 171120Z 1712/1812 13008KT P6SM BKN250
     FM171900 13008KT P6SM FEW040 BKN250 PROB30 1721/1801 5SM -TSRA
      BR BKN040CB
     FM180600 14008KT P6SM FEW040 BKN120 PROB30 1808/1812 5SM -TSRA
      BR BKN040CB=



000
FTUS43 KSGF 171100
TAFJLN
TAF
KJLN 171120Z 1712/1812 11005KT P6SM BKN250
     FM171600 15008KT P6SM VCSH SCT040 BKN250
      TEMPO 1719/1723 4SM -TSRA BR BKN040CB
     FM180300 14004KT P6SM FEW040 BKN120 PROB30 1806/1812 4SM -TSRA
      BR BKN035CB=



000
FTUS43 KSGF 170500
TAFJLN
TAF
KJLN 170526Z 1706/1806 11005KT P6SM BKN250
      TEMPO 1711/1714 5SM BR
     FM171400 14008KT P6SM SCT040 BKN250 PROB30 1800/1806 4SM -TSRA
      BR BKN035CB=



000
FTUS43 KSGF 170500
TAFSGF
TAF
KSGF 170526Z 1706/1806 13006KT P6SM BKN250
      TEMPO 1711/1714 5SM BR
     FM171900 14008KT P6SM SCT040 BKN250 PROB30 1802/1806 5SM -TSRA
      BR BKN040CB=



000
FTUS43 KSGF 162300
TAFJLN
TAF
KJLN 162320Z 1700/1724 12006KT P6SM SKC
     FM170600 12005KT 4SM BR SCT250
     FM171400 14008KT P6SM BKN250=



000
FTUS43 KSGF 162300
TAFSGF
TAF
KSGF 162320Z 1700/1724 11005KT P6SM SKC
     FM170600 13006KT 4SM BR SKC
     FM170900 14006KT 3SM BR FEW250
     FM171600 14009KT P6SM SCT030 BKN250=



000
FTUS43 KSGF 161700 CCA
TAFSGF
TAF COR
KSGF 161759Z 1618/1718 VRB03KT P6SM BKN010
     FM161930 11006KT P6SM BKN020
     FM162200 11005KT P6SM SCT250
     FM170600 14006KT 4SM BR SCT250
     FM170800 14006KT 3SM BR OVC001
     FM171600 14009KT P6SM BKN050=



000
FTUS43 KSGF 161700
TAFSGF
TAF
KSGF 161730Z 1618/1718 VRB03KT P6SM BKN009
     FM161930 11006KT P6SM BKN020
     FM162200 11005KT P6SM SCT250
     FM170600 14006KT 4SM BR SCT250
     FM170800 14006KT 3SM BR OVC001
     FM171600 14009KT P6SM BKN050=



000
FTUS43 KSGF 161700
TAFJLN
TAF
KJLN 161730Z 1618/1718 11006KT P6SM SCT030
     FM162000 12006KT P6SM SKC
     FM170600 12005KT 5SM BR SCT250
     FM171400 14008KT P6SM BKN250=



000
FTUS43 KSGF 161700
TAFSGF
TAF
KSGF 161730Z 1618/1718 VRB03KT P6SM BKN009
     FM161930 11006KT P6SM BKN020
     FM162200 11005KT P6SM SCT250
     FM170600 14006KT 4SM BR SCT250
     FM170800 14006KT 3SM BR OVC001
     FM171600 14009KT P6SM BKN050=



000
FTUS43 KSGF 161700
TAFJLN
TAF
KJLN 161730Z 1618/1718 11006KT P6SM SCT030
     FM162000 12006KT P6SM SKC
     FM170600 12005KT 5SM BR SCT250
     FM171400 14008KT P6SM BKN250=



000
FTUS43 KSGF 161300 AAA
TAFSGF
TAF AMD
KSGF 161331Z 1614/1712 18003KT 5SM BR OVC003
      TEMPO 1614/1615 3SM BR
     FM161600 17005KT P6SM BKN009
     FM161800 11006KT P6SM BKN020
     FM161900 12006KT P6SM SKC
     FM170600 14006KT 3SM BR SCT250=



000
FTUS43 KSGF 161100
TAFSGF
TAF
KSGF 161120Z 1612/1712 18003KT 1 1/2SM BR OVC003
      TEMPO 1612/1614 1/2SM FG
     FM161600 17005KT P6SM BKN015
     FM161900 11006KT P6SM SKC
     FM170600 14006KT 3SM BR SCT250=



000
FTUS43 KSGF 161100
TAFJLN
TAF
KJLN 161120Z 1612/1712 16004KT 2SM BR OVC002
      TEMPO 1612/1614 1/2SM FG
     FM161500 15007KT P6SM BKN007 BKN015
     FM161800 12006KT P6SM SKC
     FM170600 13005KT 4SM BR SCT250=



000
FTUS43 KSGF 161100
TAFJLN
TAF
KJLN 161120Z 1612/1712 16004KT 2SM BR OVC002
      TEMPO 1612/1614 1/2SM FG
     FM161500 15007KT P6SM BKN007 BKN015
     FM161800 12006KT P6SM SKC
     FM170600 13005KT 4SM BR SCT250=



000
FTUS43 KSGF 161100
TAFSGF
TAF
KSGF 161120Z 1612/1712 18003KT 1 1/2SM BR OVC003
      TEMPO 1612/1614 1/2SM FG
     FM161600 17005KT P6SM BKN015
     FM161900 11006KT P6SM SKC
     FM170600 14006KT 3SM BR SCT250=



000
FTUS43 KSGF 160700 AAA
TAFJLN
TAF AMD
KJLN 160757Z 1608/1706 09005KT P6SM OVC004
     FM160900 13004KT 3SM BR BKN005
      TEMPO 1610/1614 1SM BR OVC003
     FM161500 15007KT P6SM BKN015
     FM161800 11006KT P6SM SKC=



000
FTUS43 KSGF 160700 AAA
TAFSGF
TAF AMD
KSGF 160756Z 1608/1706 17004KT 4SM BR OVC007
      TEMPO 1608/1610 1/4SM FG OVC002
     FM161000 16003KT 3SM BR OVC003
      TEMPO 1610/1614 1/2SM FG OVC002
     FM161600 17005KT P6SM BKN015
     FM161900 11006KT P6SM SKC=



000
FTUS43 KSGF 160500
TAFJLN
TAF
KJLN 160520Z 1606/1706 09005KT P6SM OVC050
      TEMPO 1608/1610 BKN007
     FM161000 13004KT 3SM BR BKN007
      TEMPO 1610/1614 1SM BR OVC005
     FM161500 15007KT P6SM BKN015
     FM161800 11006KT P6SM SKC=



000
FTUS43 KSGF 160500
TAFSGF
TAF
KSGF 160520Z 1606/1706 17004KT P6SM OVC007
      TEMPO 1608/1610 5SM BR OVC005
     FM161000 16003KT 4SM BR OVC003
      TEMPO 1610/1614 1/2SM FG OVC002
     FM161600 17005KT P6SM BKN015
     FM161900 11006KT P6SM SKC=



000
FTUS43 KSGF 160500
TAFSGF
TAF
KSGF 160520Z 1606/1706 17004KT P6SM OVC007
      TEMPO 1608/1610 5SM BR OVC005
     FM161000 16003KT 4SM BR OVC003
      TEMPO 1610/1614 1/2SM FG OVC002
     FM161600 17005KT P6SM BKN015
     FM161900 11006KT P6SM SKC=



000
FTUS43 KSGF 160500
TAFJLN
TAF
KJLN 160520Z 1606/1706 09005KT P6SM OVC050
      TEMPO 1608/1610 BKN007
     FM161000 13004KT 3SM BR BKN007
      TEMPO 1610/1614 1SM BR OVC005
     FM161500 15007KT P6SM BKN015
     FM161800 11006KT P6SM SKC=



000
FTUS43 KSGF 160400 AAA
TAFJLN
TAF AMD
KJLN 160412Z 1604/1624 09005KT P6SM OVC050
      TEMPO 1606/1608 BKN007
     FM160800 13004KT 1SM BR BKN003
      TEMPO 1610/1614 1/2SM FG OVC003
     FM161500 16007KT P6SM SKC=



000
FTUS43 KSGF 160400 AAA
TAFJLN
TAF AMD
KJLN 160412Z 1604/1624 09005KT P6SM OVC050
      TEMPO 1606/1608 BKN007
     FM160800 13004KT 1SM BR BKN003
      TEMPO 1610/1614 1/2SM FG OVC003
     FM161500 16007KT P6SM SKC=



000
FTUS43 KSGF 160100 AAA
TAFSGF
TAF AMD
KSGF 160147Z 1602/1624 VRB04KT 3SM BR BKN007 OVC012
     FM160600 17005KT 1SM BR BKN003 OVC007
      TEMPO 1610/1614 1/2SM FG OVC003
     FM161600 18005KT P6SM SKC=



000
FTUS43 KSGF 160100 AAA
TAFSGF
TAF AMD
KSGF 160147Z 1602/1624 VRB04KT 3SM BR BKN007 OVC012
     FM160600 17005KT 1SM BR BKN003 OVC007
      TEMPO 1610/1614 1/2SM FG OVC003
     FM161600 18005KT P6SM SKC=



    US Dept of Commerce
    National Oceanic and Atmospheric Administration
    National Weather Service
    1325 East West Highway
    Silver Spring, MD 20910
    Page Author: NWS Internet Services Team
Disclaimer
Information Quality
Credits
Glossary
Privacy Policy
Freedom of Information Act (FOIA)
About Us
Career Opportunities